createdAt,value
2019-02-19T00:05:02.387Z,18.60
2019-02-19T00:10:04.757Z,17.20
2019-02-19T00:15:08.479Z,17.53
2019-02-19T00:20:11.034Z,17.43
2019-02-19T00:25:13.073Z,17.07
2019-02-19T00:30:15.069Z,17.20
2019-02-19T00:35:17.394Z,16.80
2019-02-19T00:40:19.673Z,17.97
2019-02-19T00:45:21.970Z,17.97
2019-02-19T00:50:23.889Z,18.00
2019-02-19T00:55:25.731Z,17.10
2019-02-19T01:00:27.703Z,17.50
2019-02-19T01:05:29.644Z,18.53
2019-02-19T01:10:32.594Z,17.93
2019-02-19T01:15:34.933Z,16.80
2019-02-19T01:20:36.872Z,16.70
2019-02-19T01:25:38.750Z,16.87
2019-02-19T01:30:40.706Z,17.33
2019-02-19T01:35:42.656Z,17.10
2019-02-19T01:40:44.557Z,17.30
2019-02-19T01:45:46.536Z,16.63
2019-02-19T01:50:48.984Z,16.70
2019-02-19T01:55:51.405Z,15.43
2019-02-19T02:00:53.474Z,15.93
2019-02-19T02:05:55.479Z,16.60
2019-02-19T02:10:58.325Z,16.47
2019-02-19T02:16:00.235Z,16.03
2019-02-19T02:21:02.601Z,16.13
2019-02-19T02:26:04.489Z,15.60
2019-02-19T02:31:06.645Z,15.57
2019-02-19T02:36:09.543Z,15.33
2019-02-19T02:41:11.513Z,14.97
2019-02-19T02:46:14.061Z,15.00
2019-02-19T02:51:16.636Z,14.80
2019-02-19T02:56:18.642Z,15.80
2019-02-19T03:01:21.230Z,15.53
2019-02-19T03:06:32.717Z,15.60
2019-02-19T03:11:34.929Z,15.67
2019-02-19T03:16:36.752Z,15.63
2019-02-19T03:21:39.204Z,15.00
2019-02-19T03:26:41.016Z,14.77
2019-02-19T03:31:42.841Z,16.07
2019-02-19T03:36:44.773Z,14.83
2019-02-19T03:41:46.724Z,14.60
2019-02-19T03:46:48.624Z,15.13
2019-02-19T03:51:50.754Z,15.27
2019-02-19T03:56:52.935Z,14.57
2019-02-19T04:01:54.940Z,14.43
2019-02-19T04:06:57.656Z,14.37
2019-02-19T04:11:59.905Z,15.27
2019-02-19T04:17:01.889Z,13.57
2019-02-19T04:22:03.828Z,14.27
2019-02-19T04:27:05.868Z,14.43
2019-02-19T04:32:07.716Z,14.43
2019-02-19T04:37:10.517Z,14.53
2019-02-19T04:42:13.003Z,14.23
2019-02-19T04:47:15.364Z,14.60
2019-02-19T04:52:17.382Z,15.20
2019-02-19T04:57:19.640Z,14.77
2019-02-19T05:02:21.505Z,14.00
2019-02-19T05:07:23.461Z,14.97
2019-02-19T05:12:25.997Z,14.20
2019-02-19T05:17:27.865Z,14.63
2019-02-19T05:22:30.245Z,13.83
2019-02-19T05:27:32.022Z,14.70
2019-02-19T05:32:34.338Z,14.53
2019-02-19T05:37:36.324Z,14.67
2019-02-19T05:42:38.305Z,14.63
2019-02-19T05:47:40.778Z,13.97
2019-02-19T05:52:42.728Z,14.53
2019-02-19T05:57:44.701Z,13.63
2019-02-19T06:02:46.630Z,14.53
2019-02-19T06:07:49.212Z,13.70
2019-02-19T06:12:51.776Z,15.30
2019-02-19T06:17:53.759Z,13.77
2019-02-19T06:22:55.733Z,14.57
2019-02-19T06:27:59.164Z,14.20
2019-02-19T06:33:01.272Z,14.63
2019-02-19T06:38:03.446Z,15.03
2019-02-19T06:43:06.024Z,13.97
2019-02-19T06:48:08.235Z,14.83
2019-02-19T06:53:10.309Z,14.33
2019-02-19T06:58:12.718Z,14.27
2019-02-19T07:03:28.482Z,15.47
2019-02-19T07:08:30.872Z,14.63
2019-02-19T07:13:32.780Z,13.13
2019-02-19T07:18:35.258Z,14.07
2019-02-19T07:23:37.209Z,13.97
2019-02-19T07:28:39.148Z,13.53
2019-02-19T07:33:41.149Z,13.70
2019-02-19T07:38:43.102Z,14.40
2019-02-19T07:43:44.935Z,14.03
2019-02-19T07:48:46.748Z,14.43
2019-02-19T07:53:48.674Z,14.37
2019-02-19T07:58:51.556Z,14.47
2019-02-19T08:03:54.088Z,13.80
2019-02-19T08:08:56.878Z,13.30
2019-02-19T08:13:59.147Z,13.83
2019-02-19T08:19:01.344Z,14.27
2019-02-19T08:24:03.265Z,12.90
2019-02-19T08:29:13.487Z,14.13
2019-02-19T08:34:10.125Z,14.53
2019-02-19T08:39:12.045Z,13.87
2019-02-19T08:44:14.456Z,18.30
2019-02-19T08:49:16.585Z,13.63
2019-02-19T08:54:19.272Z,13.73
2019-02-19T08:59:21.567Z,14.20
2019-02-19T09:04:23.796Z,14.43
2019-02-19T09:09:26.761Z,14.47
2019-02-19T09:14:29.524Z,15.07
2019-02-19T09:19:31.703Z,15.53
2019-02-19T09:24:34.140Z,15.67
2019-02-19T09:29:36.619Z,16.23
2019-02-19T09:34:38.480Z,17.70
2019-02-19T09:39:40.343Z,16.63
2019-02-19T09:44:42.504Z,17.97
2019-02-19T09:49:45.129Z,18.00
2019-02-19T09:54:47.027Z,18.87
2019-02-19T09:59:49.565Z,18.73
2019-02-19T10:04:51.940Z,19.53
2019-02-19T10:09:53.906Z,19.77
2019-02-19T10:14:55.912Z,19.97
2019-02-19T10:19:58.182Z,22.07
2019-02-19T10:25:00.660Z,21.67
2019-02-19T10:30:03.977Z,22.90
2019-02-19T10:35:09.207Z,20.97
2019-02-19T10:40:12.874Z,21.30
2019-02-19T10:45:16.336Z,20.87
2019-02-19T10:50:20.386Z,19.57
2019-02-19T10:55:22.852Z,19.00
2019-02-19T11:00:25.131Z,18.13
2019-02-19T11:05:27.071Z,17.10
2019-02-19T11:10:28.976Z,17.10
2019-02-19T11:15:31.136Z,17.73
2019-02-19T11:20:33.381Z,17.13
2019-02-19T11:25:35.865Z,16.83
2019-02-19T11:30:39.927Z,17.33
2019-02-19T11:35:42.213Z,17.70
2019-02-19T11:40:44.269Z,17.77
2019-02-19T11:45:47.505Z,18.90
2019-02-19T11:50:49.723Z,17.73
2019-02-19T11:55:52.604Z,19.00
2019-02-19T12:00:55.695Z,19.23
2019-02-19T12:05:58.816Z,19.07
2019-02-19T12:11:00.901Z,18.63
2019-02-19T12:16:03.009Z,17.83
2019-02-19T12:21:04.875Z,17.13
2019-02-19T12:26:07.853Z,16.57
2019-02-19T12:31:09.789Z,15.57
2019-02-19T12:36:11.700Z,16.40
2019-02-19T12:41:14.602Z,15.50
2019-02-19T12:46:16.783Z,15.30
2019-02-19T12:51:26.274Z,15.00
2019-02-19T12:56:24.144Z,14.80
2019-02-19T13:01:26.208Z,15.07
2019-02-19T13:06:28.440Z,16.13
2019-02-19T13:11:30.267Z,15.63
2019-02-19T13:16:33.556Z,15.60
2019-02-19T13:21:35.596Z,16.10
2019-02-19T13:26:37.540Z,15.97
2019-02-19T13:31:40.027Z,15.83
2019-02-19T13:36:42.763Z,14.83
2019-02-19T13:41:44.693Z,14.30
2019-02-19T13:46:47.226Z,13.73
2019-02-19T13:51:49.423Z,13.83
2019-02-19T13:56:51.635Z,12.87
2019-02-19T14:01:53.771Z,13.87
2019-02-19T14:06:55.953Z,12.83
2019-02-19T14:11:58.645Z,13.30
2019-02-19T14:17:04.632Z,10.73
2019-02-19T14:22:25.024Z,10.77
2019-02-19T14:27:49.552Z,10.97
2019-02-19T14:33:11.249Z,10.60
2019-02-19T14:38:33.004Z,11.13
2019-02-19T14:43:58.370Z,10.80
2019-02-19T14:49:36.851Z,10.20
2019-02-19T14:54:58.123Z,10.20
2019-02-19T15:00:18.543Z,10.77
2019-02-19T15:05:34.745Z,10.50
2019-02-19T15:10:55.377Z,10.43
2019-02-19T15:16:19.997Z,8.87
2019-02-19T15:21:40.580Z,9.73
2019-02-19T15:27:17.512Z,9.13
2019-02-19T15:32:29.816Z,8.60
2019-02-19T15:37:38.765Z,9.03
2019-02-19T15:43:13.076Z,8.97
2019-02-19T15:48:32.453Z,8.80
2019-02-19T15:53:48.898Z,8.60
2019-02-19T15:59:06.388Z,8.50
2019-02-19T16:04:16.260Z,7.63
2019-02-19T16:09:32.121Z,8.10
2019-02-19T16:14:40.489Z,7.77
2019-02-19T16:19:47.205Z,7.20
2019-02-19T16:25:07.580Z,6.73
2019-02-19T16:30:16.859Z,6.63
2019-02-19T16:35:31.099Z,6.90
2019-02-19T16:40:42.757Z,6.77
2019-02-19T16:45:54.141Z,6.43
2019-02-19T16:51:26.215Z,7.03
2019-02-19T16:56:38.113Z,6.20
2019-02-19T17:01:58.560Z,6.90
2019-02-19T17:07:11.440Z,6.40
2019-02-19T17:12:26.900Z,6.17
2019-02-19T17:17:50.087Z,6.40
2019-02-19T17:23:07.308Z,6.17
2019-02-19T17:28:40.871Z,6.87
2019-02-19T17:33:51.063Z,6.80
2019-02-19T17:39:09.064Z,6.33
2019-02-19T17:44:17.623Z,6.43
2019-02-19T17:49:31.881Z,7.23
2019-02-19T17:54:42.944Z,6.00
2019-02-19T17:59:52.965Z,5.70
2019-02-19T18:05:11.645Z,5.40
2019-02-19T18:10:49.914Z,5.70
2019-02-19T18:16:18.120Z,4.87
2019-02-19T18:21:20.295Z,5.60
2019-02-19T18:26:22.225Z,5.63
2019-02-19T18:31:24.777Z,4.73
2019-02-19T18:36:27.284Z,5.43
2019-02-19T18:41:29.502Z,5.07
2019-02-19T18:46:31.444Z,4.90
2019-02-19T18:51:33.629Z,4.83
2019-02-19T18:56:35.510Z,5.00
2019-02-19T19:01:37.509Z,5.23
2019-02-19T19:06:41.850Z,4.67
2019-02-19T19:11:44.842Z,4.37
2019-02-19T19:16:48.012Z,4.73
2019-02-19T19:21:51.127Z,5.87
2019-02-19T19:26:53.420Z,5.70
2019-02-19T19:31:56.242Z,5.50
2019-02-19T19:36:58.333Z,4.80
2019-02-19T19:42:00.505Z,4.90
2019-02-19T19:47:02.960Z,6.47
2019-02-19T19:52:04.779Z,5.63
2019-02-19T19:57:06.941Z,6.30
2019-02-19T20:02:09.311Z,6.17
2019-02-19T20:07:17.526Z,6.07
2019-02-19T20:12:20.026Z,5.87
2019-02-19T20:17:22.509Z,5.73
2019-02-19T20:22:25.013Z,4.80
2019-02-19T20:27:27.507Z,5.10
2019-02-19T20:32:30.221Z,4.77
2019-02-19T20:37:32.126Z,5.70
2019-02-19T20:42:34.485Z,5.60
2019-02-19T20:47:36.981Z,6.07
2019-02-19T20:52:39.454Z,5.43
2019-02-19T20:57:42.264Z,5.60
2019-02-19T21:02:44.556Z,5.20
2019-02-19T21:07:47.871Z,5.73
2019-02-19T21:12:50.173Z,5.30
2019-02-19T21:17:52.946Z,5.70
2019-02-19T21:22:54.864Z,5.67
2019-02-19T21:27:56.801Z,6.30
2019-02-19T21:33:00.025Z,6.33
2019-02-19T21:38:02.516Z,6.30
2019-02-19T21:43:05.402Z,6.63
2019-02-19T21:48:07.347Z,5.80
2019-02-19T21:53:09.653Z,5.97
2019-02-19T21:58:11.604Z,6.07
2019-02-19T22:03:13.936Z,6.27
2019-02-19T22:08:15.805Z,6.30
2019-02-19T22:13:17.868Z,6.90
2019-02-19T22:18:19.984Z,7.00
2019-02-19T22:23:22.572Z,6.87
2019-02-19T22:28:24.845Z,6.30
2019-02-19T22:33:27.012Z,6.00
2019-02-19T22:38:30.156Z,5.93
2019-02-19T22:43:32.106Z,5.07
2019-02-19T22:48:34.299Z,5.37
2019-02-19T22:53:58.756Z,5.23
2019-02-19T22:59:01.061Z,5.03
2019-02-19T23:04:04.108Z,5.00
2019-02-19T23:09:06.271Z,5.40
2019-02-19T23:14:09.717Z,6.07
2019-02-19T23:19:12.497Z,5.50
2019-02-19T23:24:14.447Z,6.30
2019-02-19T23:29:16.863Z,5.63
2019-02-19T23:34:18.925Z,5.93
2019-02-19T23:39:20.857Z,6.43
2019-02-19T23:44:22.831Z,6.13
2019-02-19T23:49:24.664Z,6.10
2019-02-19T23:54:26.505Z,6.93
2019-02-19T23:59:28.757Z,6.87
